sensor_id;sensor_type;location;lat;lon;timestamp;temperature;humidity
20066;DHT22;10193;48.884;9.182;2023-08-01T00:01:54;21.70;71.80
20066;DHT22;10193;48.884;9.182;2023-08-01T00:04:20;21.70;71.80
20066;DHT22;10193;48.884;9.182;2023-08-01T00:06:48;21.70;71.90
20066;DHT22;10193;48.884;9.182;2023-08-01T00:09:15;21.70;71.90
20066;DHT22;10193;48.884;9.182;2023-08-01T00:11:42;21.70;71.90
20066;DHT22;10193;48.884;9.182;2023-08-01T00:14:08;21.60;71.90
20066;DHT22;10193;48.884;9.182;2023-08-01T00:16:35;21.70;72.10
20066;DHT22;10193;48.884;9.182;2023-08-01T00:19:01;21.70;72.20
20066;DHT22;10193;48.884;9.182;2023-08-01T00:21:28;21.60;72.10
20066;DHT22;10193;48.884;9.182;2023-08-01T00:23:58;21.60;72.10
20066;DHT22;10193;48.884;9.182;2023-08-01T00:26:25;21.60;72.20
20066;DHT22;10193;48.884;9.182;2023-08-01T00:28:51;21.60;72.20
20066;DHT22;10193;48.884;9.182;2023-08-01T00:31:18;21.60;72.30
20066;DHT22;10193;48.884;9.182;2023-08-01T00:33:45;21.60;72.40
20066;DHT22;10193;48.884;9.182;2023-08-01T00:36:11;21.60;72.40
20066;DHT22;10193;48.884;9.182;2023-08-01T00:38:38;21.60;72.50
20066;DHT22;10193;48.884;9.182;2023-08-01T00:41:07;21.50;72.60
20066;DHT22;10193;48.884;9.182;2023-08-01T00:43:34;21.50;72.70
20066;DHT22;10193;48.884;9.182;2023-08-01T00:46:03;21.50;72.80
20066;DHT22;10193;48.884;9.182;2023-08-01T00:48:30;21.50;73.00
20066;DHT22;10193;48.884;9.182;2023-08-01T00:50:57;21.40;73.00
20066;DHT22;10193;48.884;9.182;2023-08-01T00:53:24;21.40;73.20
20066;DHT22;10193;48.884;9.182;2023-08-01T00:55:52;21.40;73.30
20066;DHT22;10193;48.884;9.182;2023-08-01T00:58:20;21.40;73.20
20066;DHT22;10193;48.884;9.182;2023-08-01T01:00:47;21.30;73.20
20066;DHT22;10193;48.884;9.182;2023-08-01T01:03:18;21.30;73.30
20066;DHT22;10193;48.884;9.182;2023-08-01T01:05:52;21.30;73.50
20066;DHT22;10193;48.884;9.182;2023-08-01T01:08:20;21.20;73.60
20066;DHT22;10193;48.884;9.182;2023-08-01T01:10:47;21.20;73.60
20066;DHT22;10193;48.884;9.182;2023-08-01T01:13:13;21.20;73.80
20066;DHT22;10193;48.884;9.182;2023-08-01T01:15:41;21.20;73.90
20066;DHT22;10193;48.884;9.182;2023-08-01T01:18:08;21.10;73.90
20066;DHT22;10193;48.884;9.182;2023-08-01T01:20:36;21.10;73.90
20066;DHT22;10193;48.884;9.182;2023-08-01T01:23:04;21.10;73.90
20066;DHT22;10193;48.884;9.182;2023-08-01T01:25:32;21.10;74.00
20066;DHT22;10193;48.884;9.182;2023-08-01T01:27:59;21.10;74.10
20066;DHT22;10193;48.884;9.182;2023-08-01T01:30:28;21.10;74.20
20066;DHT22;10193;48.884;9.182;2023-08-01T01:32:55;21.10;74.20
20066;DHT22;10193;48.884;9.182;2023-08-01T01:35:23;21.10;74.00
20066;DHT22;10193;48.884;9.182;2023-08-01T01:37:51;21.10;73.90
20066;DHT22;10193;48.884;9.182;2023-08-01T01:40:18;21.10;73.90
20066;DHT22;10193;48.884;9.182;2023-08-01T01:42:44;21.10;73.80
20066;DHT22;10193;48.884;9.182;2023-08-01T01:45:11;21.10;73.70
20066;DHT22;10193;48.884;9.182;2023-08-01T01:47:38;21.10;73.90
20066;DHT22;10193;48.884;9.182;2023-08-01T01:50:05;21.00;73.90
20066;DHT22;10193;48.884;9.182;2023-08-01T01:52:32;21.00;74.00
20066;DHT22;10193;48.884;9.182;2023-08-01T01:55:00;21.00;74.20
20066;DHT22;10193;48.884;9.182;2023-08-01T01:57:27;21.00;74.30
20066;DHT22;10193;48.884;9.182;2023-08-01T01:59:53;20.90;74.30
20066;DHT22;10193;48.884;9.182;2023-08-01T02:02:20;20.90;74.50
20066;DHT22;10193;48.884;9.182;2023-08-01T02:04:47;20.90;75.60
20066;DHT22;10193;48.884;9.182;2023-08-01T02:07:14;20.90;74.80
20066;DHT22;10193;48.884;9.182;2023-08-01T02:09:40;21.00;75.10
20066;DHT22;10193;48.884;9.182;2023-08-01T02:12:09;20.90;75.20
20066;DHT22;10193;48.884;9.182;2023-08-01T02:14:39;20.90;75.30
20066;DHT22;10193;48.884;9.182;2023-08-01T02:17:06;20.90;75.30
20066;DHT22;10193;48.884;9.182;2023-08-01T02:19:32;20.90;75.20
20066;DHT22;10193;48.884;9.182;2023-08-01T02:21:59;21.00;75.40
20066;DHT22;10193;48.884;9.182;2023-08-01T02:24:26;20.90;75.30
20066;DHT22;10193;48.884;9.182;2023-08-01T02:26:52;20.90;75.40
20066;DHT22;10193;48.884;9.182;2023-08-01T02:29:20;20.90;75.50
20066;DHT22;10193;48.884;9.182;2023-08-01T02:31:47;20.90;75.70
20066;DHT22;10193;48.884;9.182;2023-08-01T02:34:14;20.90;75.90
20066;DHT22;10193;48.884;9.182;2023-08-01T02:36:40;20.90;76.00
20066;DHT22;10193;48.884;9.182;2023-08-01T02:39:07;20.90;76.00
20066;DHT22;10193;48.884;9.182;2023-08-01T02:41:34;20.90;76.00
20066;DHT22;10193;48.884;9.182;2023-08-01T02:44:01;20.90;76.00
20066;DHT22;10193;48.884;9.182;2023-08-01T02:46:29;20.90;76.00
20066;DHT22;10193;48.884;9.182;2023-08-01T02:48:56;20.90;76.00
20066;DHT22;10193;48.884;9.182;2023-08-01T02:51:23;20.90;76.00
20066;DHT22;10193;48.884;9.182;2023-08-01T02:53:50;20.90;76.10
20066;DHT22;10193;48.884;9.182;2023-08-01T02:56:16;20.90;76.10
20066;DHT22;10193;48.884;9.182;2023-08-01T02:58:43;20.90;76.10
20066;DHT22;10193;48.884;9.182;2023-08-01T03:01:10;20.90;76.20
20066;DHT22;10193;48.884;9.182;2023-08-01T03:03:39;20.90;76.20
20066;DHT22;10193;48.884;9.182;2023-08-01T03:06:06;20.80;76.20
20066;DHT22;10193;48.884;9.182;2023-08-01T03:08:33;20.80;76.40
20066;DHT22;10193;48.884;9.182;2023-08-01T03:11:00;20.80;76.40
20066;DHT22;10193;48.884;9.182;2023-08-01T03:13:26;20.80;76.40
20066;DHT22;10193;48.884;9.182;2023-08-01T03:15:53;20.90;76.50
20066;DHT22;10193;48.884;9.182;2023-08-01T03:18:20;20.80;76.50
20066;DHT22;10193;48.884;9.182;2023-08-01T03:20:48;20.80;76.60
20066;DHT22;10193;48.884;9.182;2023-08-01T03:23:14;20.80;76.70
20066;DHT22;10193;48.884;9.182;2023-08-01T03:25:41;20.80;76.80
20066;DHT22;10193;48.884;9.182;2023-08-01T03:28:08;20.80;76.80
20066;DHT22;10193;48.884;9.182;2023-08-01T03:30:35;20.80;76.90
20066;DHT22;10193;48.884;9.182;2023-08-01T03:33:02;20.80;76.90
20066;DHT22;10193;48.884;9.182;2023-08-01T03:35:29;20.80;76.90
20066;DHT22;10193;48.884;9.182;2023-08-01T03:37:57;20.80;77.10
20066;DHT22;10193;48.884;9.182;2023-08-01T03:40:23;20.80;77.10
20066;DHT22;10193;48.884;9.182;2023-08-01T03:42:50;20.80;77.10
20066;DHT22;10193;48.884;9.182;2023-08-01T03:45:17;20.80;77.10
20066;DHT22;10193;48.884;9.182;2023-08-01T03:47:43;20.80;77.00
20066;DHT22;10193;48.884;9.182;2023-08-01T03:50:10;20.80;77.00
20066;DHT22;10193;48.884;9.182;2023-08-01T03:52:39;20.80;77.10
20066;DHT22;10193;48.884;9.182;2023-08-01T03:55:07;20.80;77.20
20066;DHT22;10193;48.884;9.182;2023-08-01T03:57:34;20.80;77.20
20066;DHT22;10193;48.884;9.182;2023-08-01T04:00:00;20.80;77.10
20066;DHT22;10193;48.884;9.182;2023-08-01T04:02:28;20.80;77.10
20066;DHT22;10193;48.884;9.182;2023-08-01T04:04:55;20.80;76.90
20066;DHT22;10193;48.884;9.182;2023-08-01T04:07:21;20.80;76.90
20066;DHT22;10193;48.884;9.182;2023-08-01T04:09:48;20.80;76.90
20066;DHT22;10193;48.884;9.182;2023-08-01T04:12:16;20.80;76.80
20066;DHT22;10193;48.884;9.182;2023-08-01T04:14:43;20.80;76.70
20066;DHT22;10193;48.884;9.182;2023-08-01T04:17:10;20.80;76.80
20066;DHT22;10193;48.884;9.182;2023-08-01T04:19:36;20.80;76.70
20066;DHT22;10193;48.884;9.182;2023-08-01T04:22:03;20.90;76.70
20066;DHT22;10193;48.884;9.182;2023-08-01T04:24:30;20.80;76.60
20066;DHT22;10193;48.884;9.182;2023-08-01T04:26:57;20.80;76.40
20066;DHT22;10193;48.884;9.182;2023-08-01T04:29:25;20.80;76.30
20066;DHT22;10193;48.884;9.182;2023-08-01T04:31:51;20.90;76.30
20066;DHT22;10193;48.884;9.182;2023-08-01T04:34:18;20.90;76.20
20066;DHT22;10193;48.884;9.182;2023-08-01T04:36:45;20.90;76.20
20066;DHT22;10193;48.884;9.182;2023-08-01T04:39:12;20.90;76.10
20066;DHT22;10193;48.884;9.182;2023-08-01T04:41:38;20.90;76.00
20066;DHT22;10193;48.884;9.182;2023-08-01T04:44:05;20.90;75.90
20066;DHT22;10193;48.884;9.182;2023-08-01T04:46:33;20.90;75.90
20066;DHT22;10193;48.884;9.182;2023-08-01T04:49:00;21.00;76.00
20066;DHT22;10193;48.884;9.182;2023-08-01T04:51:27;21.00;75.90
20066;DHT22;10193;48.884;9.182;2023-08-01T04:53:54;21.00;75.80
20066;DHT22;10193;48.884;9.182;2023-08-01T04:56:20;21.10;75.70
20066;DHT22;10193;48.884;9.182;2023-08-01T04:58:47;21.10;75.70
20066;DHT22;10193;48.884;9.182;2023-08-01T05:01:14;21.10;75.50
20066;DHT22;10193;48.884;9.182;2023-08-01T05:03:42;21.10;75.40
20066;DHT22;10193;48.884;9.182;2023-08-01T05:06:08;21.10;75.20
20066;DHT22;10193;48.884;9.182;2023-08-01T05:08:35;21.20;75.30
20066;DHT22;10193;48.884;9.182;2023-08-01T05:11:01;21.20;75.10
20066;DHT22;10193;48.884;9.182;2023-08-01T05:13:28;21.20;75.10
20066;DHT22;10193;48.884;9.182;2023-08-01T05:15:55;21.20;75.00
20066;DHT22;10193;48.884;9.182;2023-08-01T05:18:21;21.20;75.00
20066;DHT22;10193;48.884;9.182;2023-08-01T05:20:49;21.20;74.90
20066;DHT22;10193;48.884;9.182;2023-08-01T05:23:16;21.20;74.80
20066;DHT22;10193;48.884;9.182;2023-08-01T05:25:43;21.20;74.80
20066;DHT22;10193;48.884;9.182;2023-08-01T05:28:09;21.10;74.60
20066;DHT22;10193;48.884;9.182;2023-08-01T05:30:37;21.20;74.60
20066;DHT22;10193;48.884;9.182;2023-08-01T05:33:04;21.20;74.60
20066;DHT22;10193;48.884;9.182;2023-08-01T05:35:31;21.20;74.60
20066;DHT22;10193;48.884;9.182;2023-08-01T05:37:58;21.20;74.60
20066;DHT22;10193;48.884;9.182;2023-08-01T05:40:25;21.20;74.60
20066;DHT22;10193;48.884;9.182;2023-08-01T05:42:52;21.20;74.90
20066;DHT22;10193;48.884;9.182;2023-08-01T05:45:19;21.20;75.00
20066;DHT22;10193;48.884;9.182;2023-08-01T05:47:45;21.30;75.20
20066;DHT22;10193;48.884;9.182;2023-08-01T05:50:12;21.30;75.40
20066;DHT22;10193;48.884;9.182;2023-08-01T05:52:39;21.30;75.40
20066;DHT22;10193;48.884;9.182;2023-08-01T05:55:07;21.40;75.60
20066;DHT22;10193;48.884;9.182;2023-08-01T05:57:34;21.40;75.50
20066;DHT22;10193;48.884;9.182;2023-08-01T06:00:01;21.40;75.50
20066;DHT22;10193;48.884;9.182;2023-08-01T06:02:27;21.40;75.50
20066;DHT22;10193;48.884;9.182;2023-08-01T06:04:54;21.40;75.50
20066;DHT22;10193;48.884;9.182;2023-08-01T06:07:21;21.40;75.40
20066;DHT22;10193;48.884;9.182;2023-08-01T06:09:48;21.50;75.50
20066;DHT22;10193;48.884;9.182;2023-08-01T06:12:17;21.50;75.50
20066;DHT22;10193;48.884;9.182;2023-08-01T06:14:43;21.50;75.40
20066;DHT22;10193;48.884;9.182;2023-08-01T06:17:10;21.50;75.40
20066;DHT22;10193;48.884;9.182;2023-08-01T06:19:37;21.50;75.40
20066;DHT22;10193;48.884;9.182;2023-08-01T06:22:04;21.50;75.20
20066;DHT22;10193;48.884;9.182;2023-08-01T06:24:31;21.50;75.10
20066;DHT22;10193;48.884;9.182;2023-08-01T06:26:57;21.50;75.10
20066;DHT22;10193;48.884;9.182;2023-08-01T06:29:25;21.60;75.20
20066;DHT22;10193;48.884;9.182;2023-08-01T06:31:52;21.60;75.00
20066;DHT22;10193;48.884;9.182;2023-08-01T06:34:18;21.60;75.00
20066;DHT22;10193;48.884;9.182;2023-08-01T06:36:45;21.60;74.90
20066;DHT22;10193;48.884;9.182;2023-08-01T06:39:12;21.60;74.60
20066;DHT22;10193;48.884;9.182;2023-08-01T06:41:38;21.60;74.30
20066;DHT22;10193;48.884;9.182;2023-08-01T06:44:05;21.50;73.90
20066;DHT22;10193;48.884;9.182;2023-08-01T06:46:33;21.40;73.60
20066;DHT22;10193;48.884;9.182;2023-08-01T06:48:59;21.40;73.50
20066;DHT22;10193;48.884;9.182;2023-08-01T06:51:26;21.30;73.30
20066;DHT22;10193;48.884;9.182;2023-08-01T06:53:53;21.20;73.10
20066;DHT22;10193;48.884;9.182;2023-08-01T06:56:19;21.10;73.30
20066;DHT22;10193;48.884;9.182;2023-08-01T06:58:47;21.00;73.70
20066;DHT22;10193;48.884;9.182;2023-08-01T07:01:14;20.90;73.90
20066;DHT22;10193;48.884;9.182;2023-08-01T07:03:42;20.80;74.30
20066;DHT22;10193;48.884;9.182;2023-08-01T07:06:09;20.70;74.70
20066;DHT22;10193;48.884;9.182;2023-08-01T07:08:35;20.70;75.30
20066;DHT22;10193;48.884;9.182;2023-08-01T07:11:02;20.70;75.70
20066;DHT22;10193;48.884;9.182;2023-08-01T07:13:29;20.60;76.10
20066;DHT22;10193;48.884;9.182;2023-08-01T07:15:55;20.60;76.50
20066;DHT22;10193;48.884;9.182;2023-08-01T07:18:22;20.60;76.80
20066;DHT22;10193;48.884;9.182;2023-08-01T07:20:59;20.50;76.70
20066;DHT22;10193;48.884;9.182;2023-08-01T07:23:25;20.50;76.90
20066;DHT22;10193;48.884;9.182;2023-08-01T07:25:52;20.50;76.70
20066;DHT22;10193;48.884;9.182;2023-08-01T07:28:19;20.50;76.80
20066;DHT22;10193;48.884;9.182;2023-08-01T07:30:45;20.50;76.70
20066;DHT22;10193;48.884;9.182;2023-08-01T07:33:12;20.50;76.60
20066;DHT22;10193;48.884;9.182;2023-08-01T07:35:39;20.50;76.40
20066;DHT22;10193;48.884;9.182;2023-08-01T07:38:07;20.40;76.20
20066;DHT22;10193;48.884;9.182;2023-08-01T07:40:36;20.40;76.10
20066;DHT22;10193;48.884;9.182;2023-08-01T07:43:03;20.40;76.10
20066;DHT22;10193;48.884;9.182;2023-08-01T07:45:29;20.30;76.00
20066;DHT22;10193;48.884;9.182;2023-08-01T07:47:58;20.30;76.10
20066;DHT22;10193;48.884;9.182;2023-08-01T07:50:26;20.20;76.20
20066;DHT22;10193;48.884;9.182;2023-08-01T07:52:52;20.20;76.40
20066;DHT22;10193;48.884;9.182;2023-08-01T07:55:20;20.20;76.70
20066;DHT22;10193;48.884;9.182;2023-08-01T07:57:47;20.10;76.90
20066;DHT22;10193;48.884;9.182;2023-08-01T08:00:14;20.20;77.40
20066;DHT22;10193;48.884;9.182;2023-08-01T08:02:41;20.20;77.50
20066;DHT22;10193;48.884;9.182;2023-08-01T08:05:08;20.20;78.00
20066;DHT22;10193;48.884;9.182;2023-08-01T08:07:36;20.20;78.40
20066;DHT22;10193;48.884;9.182;2023-08-01T08:10:03;20.20;78.60
20066;DHT22;10193;48.884;9.182;2023-08-01T08:12:32;20.20;78.90
20066;DHT22;10193;48.884;9.182;2023-08-01T08:14:58;20.30;79.10
20066;DHT22;10193;48.884;9.182;2023-08-01T08:17:25;20.40;79.10
20066;DHT22;10193;48.884;9.182;2023-08-01T08:19:51;20.40;78.80
20066;DHT22;10193;48.884;9.182;2023-08-01T08:22:18;20.40;78.70
20066;DHT22;10193;48.884;9.182;2023-08-01T08:24:45;20.50;78.90
20066;DHT22;10193;48.884;9.182;2023-08-01T08:27:11;20.50;79.00
20066;DHT22;10193;48.884;9.182;2023-08-01T08:29:40;20.50;79.30
20066;DHT22;10193;48.884;9.182;2023-08-01T08:32:07;20.60;79.30
20066;DHT22;10193;48.884;9.182;2023-08-01T08:34:34;20.60;79.50
20066;DHT22;10193;48.884;9.182;2023-08-01T08:37:00;20.60;79.60
20066;DHT22;10193;48.884;9.182;2023-08-01T08:39:27;20.70;79.90
20066;DHT22;10193;48.884;9.182;2023-08-01T08:41:54;20.70;80.10
20066;DHT22;10193;48.884;9.182;2023-08-01T08:44:20;20.80;80.20
20066;DHT22;10193;48.884;9.182;2023-08-01T08:46:50;20.80;80.20
20066;DHT22;10193;48.884;9.182;2023-08-01T08:49:18;20.80;80.30
20066;DHT22;10193;48.884;9.182;2023-08-01T08:51:46;20.90;80.70
20066;DHT22;10193;48.884;9.182;2023-08-01T08:54:13;21.00;81.00
20066;DHT22;10193;48.884;9.182;2023-08-01T08:56:40;21.10;82.10
20066;DHT22;10193;48.884;9.182;2023-08-01T08:59:07;21.20;81.40
20066;DHT22;10193;48.884;9.182;2023-08-01T09:01:35;21.30;81.50
20066;DHT22;10193;48.884;9.182;2023-08-01T09:04:04;21.40;81.60
20066;DHT22;10193;48.884;9.182;2023-08-01T09:06:34;21.50;81.30
20066;DHT22;10193;48.884;9.182;2023-08-01T09:09:04;21.60;80.90
20066;DHT22;10193;48.884;9.182;2023-08-01T09:11:42;21.60;80.10
20066;DHT22;10193;48.884;9.182;2023-08-01T09:14:09;21.70;79.30
20066;DHT22;10193;48.884;9.182;2023-08-01T09:16:36;21.70;78.80
20066;DHT22;10193;48.884;9.182;2023-08-01T09:19:06;21.70;78.50
20066;DHT22;10193;48.884;9.182;2023-08-01T09:21:33;21.70;78.40
20066;DHT22;10193;48.884;9.182;2023-08-01T09:24:08;21.70;78.30
20066;DHT22;10193;48.884;9.182;2023-08-01T09:26:35;21.70;78.50
20066;DHT22;10193;48.884;9.182;2023-08-01T09:29:02;21.70;78.60
20066;DHT22;10193;48.884;9.182;2023-08-01T09:31:30;21.70;79.10
20066;DHT22;10193;48.884;9.182;2023-08-01T09:33:57;21.70;79.70
20066;DHT22;10193;48.884;9.182;2023-08-01T09:36:25;21.70;79.90
20066;DHT22;10193;48.884;9.182;2023-08-01T09:38:57;21.70;80.00
20066;DHT22;10193;48.884;9.182;2023-08-01T09:41:25;21.80;80.10
20066;DHT22;10193;48.884;9.182;2023-08-01T09:43:51;21.80;80.20
20066;DHT22;10193;48.884;9.182;2023-08-01T09:46:18;21.90;80.60
20066;DHT22;10193;48.884;9.182;2023-08-01T09:48:45;21.90;80.70
20066;DHT22;10193;48.884;9.182;2023-08-01T09:51:13;22.00;80.90
20066;DHT22;10193;48.884;9.182;2023-08-01T09:53:49;22.00;80.90
20066;DHT22;10193;48.884;9.182;2023-08-01T09:56:18;22.10;80.80
20066;DHT22;10193;48.884;9.182;2023-08-01T09:58:46;22.10;80.70
20066;DHT22;10193;48.884;9.182;2023-08-01T10:01:14;22.20;80.70
20066;DHT22;10193;48.884;9.182;2023-08-01T10:03:45;22.20;80.20
20066;DHT22;10193;48.884;9.182;2023-08-01T10:06:15;22.30;79.80
20066;DHT22;10193;48.884;9.182;2023-08-01T10:08:44;22.30;79.20
20066;DHT22;10193;48.884;9.182;2023-08-01T10:11:12;22.30;79.10
20066;DHT22;10193;48.884;9.182;2023-08-01T10:13:41;22.30;79.50
20066;DHT22;10193;48.884;9.182;2023-08-01T10:16:08;22.30;79.40
20066;DHT22;10193;48.884;9.182;2023-08-01T10:18:36;22.30;79.50
20066;DHT22;10193;48.884;9.182;2023-08-01T10:21:04;22.30;79.30
20066;DHT22;10193;48.884;9.182;2023-08-01T10:23:32;22.30;78.70
20066;DHT22;10193;48.884;9.182;2023-08-01T10:26:00;22.20;78.30
20066;DHT22;10193;48.884;9.182;2023-08-01T10:28:36;22.20;77.80
20066;DHT22;10193;48.884;9.182;2023-08-01T10:31:10;22.20;77.30
20066;DHT22;10193;48.884;9.182;2023-08-01T10:33:37;22.10;76.90
20066;DHT22;10193;48.884;9.182;2023-08-01T10:36:13;22.10;76.80
20066;DHT22;10193;48.884;9.182;2023-08-01T10:38:47;22.10;76.10
20066;DHT22;10193;48.884;9.182;2023-08-01T10:41:19;22.00;75.70
20066;DHT22;10193;48.884;9.182;2023-08-01T10:43:47;22.00;74.90
20066;DHT22;10193;48.884;9.182;2023-08-01T10:46:13;22.00;75.40
20066;DHT22;10193;48.884;9.182;2023-08-01T10:48:48;22.00;75.20
20066;DHT22;10193;48.884;9.182;2023-08-01T10:51:15;21.90;75.30
20066;DHT22;10193;48.884;9.182;2023-08-01T10:53:42;22.00;76.00
20066;DHT22;10193;48.884;9.182;2023-08-01T10:56:15;22.00;76.30
20066;DHT22;10193;48.884;9.182;2023-08-01T10:58:42;22.00;76.30
20066;DHT22;10193;48.884;9.182;2023-08-01T11:01:10;22.20;76.80
20066;DHT22;10193;48.884;9.182;2023-08-01T11:03:37;22.20;76.90
20066;DHT22;10193;48.884;9.182;2023-08-01T11:06:04;22.30;77.10
20066;DHT22;10193;48.884;9.182;2023-08-01T11:08:35;22.40;77.00
20066;DHT22;10193;48.884;9.182;2023-08-01T11:11:02;22.50;78.00
20066;DHT22;10193;48.884;9.182;2023-08-01T11:13:29;22.70;77.60
20066;DHT22;10193;48.884;9.182;2023-08-01T11:15:57;22.80;77.50
20066;DHT22;10193;48.884;9.182;2023-08-01T11:18:25;23.00;75.90
20066;DHT22;10193;48.884;9.182;2023-08-01T11:20:52;23.10;75.40
20066;DHT22;10193;48.884;9.182;2023-08-01T11:23:18;23.20;75.00
20066;DHT22;10193;48.884;9.182;2023-08-01T11:25:45;23.30;74.50
20066;DHT22;10193;48.884;9.182;2023-08-01T11:28:16;23.40;73.70
20066;DHT22;10193;48.884;9.182;2023-08-01T11:30:43;23.40;73.30
20066;DHT22;10193;48.884;9.182;2023-08-01T11:33:14;23.40;72.90
20066;DHT22;10193;48.884;9.182;2023-08-01T11:35:42;23.40;72.60
20066;DHT22;10193;48.884;9.182;2023-08-01T11:38:09;23.50;72.20
20066;DHT22;10193;48.884;9.182;2023-08-01T11:40:37;23.40;71.90
20066;DHT22;10193;48.884;9.182;2023-08-01T11:43:04;23.40;71.80
20066;DHT22;10193;48.884;9.182;2023-08-01T11:45:30;23.40;71.60
20066;DHT22;10193;48.884;9.182;2023-08-01T11:47:57;23.40;71.20
20066;DHT22;10193;48.884;9.182;2023-08-01T11:50:25;23.40;70.70
20066;DHT22;10193;48.884;9.182;2023-08-01T11:52:53;23.50;70.40
20066;DHT22;10193;48.884;9.182;2023-08-01T11:55:24;23.50;70.10
20066;DHT22;10193;48.884;9.182;2023-08-01T11:57:53;23.50;68.70
20066;DHT22;10193;48.884;9.182;2023-08-01T12:00:22;23.50;68.60
20066;DHT22;10193;48.884;9.182;2023-08-01T12:02:48;23.50;68.70
20066;DHT22;10193;48.884;9.182;2023-08-01T12:05:21;23.60;68.70
20066;DHT22;10193;48.884;9.182;2023-08-01T12:07:48;23.60;68.40
20066;DHT22;10193;48.884;9.182;2023-08-01T12:10:16;23.70;68.60
20066;DHT22;10193;48.884;9.182;2023-08-01T12:12:45;23.70;67.70
20066;DHT22;10193;48.884;9.182;2023-08-01T12:15:12;23.70;66.00
20066;DHT22;10193;48.884;9.182;2023-08-01T12:17:39;23.80;66.60
20066;DHT22;10193;48.884;9.182;2023-08-01T12:20:07;23.80;66.50
20066;DHT22;10193;48.884;9.182;2023-08-01T12:22:34;23.80;65.00
20066;DHT22;10193;48.884;9.182;2023-08-01T12:25:00;23.80;64.60
20066;DHT22;10193;48.884;9.182;2023-08-01T12:27:28;23.90;63.90
20066;DHT22;10193;48.884;9.182;2023-08-01T12:29:55;23.90;62.90
20066;DHT22;10193;48.884;9.182;2023-08-01T12:32:21;23.90;62.70
20066;DHT22;10193;48.884;9.182;2023-08-01T12:34:48;23.90;60.90
20066;DHT22;10193;48.884;9.182;2023-08-01T12:37:15;24.00;60.30
20066;DHT22;10193;48.884;9.182;2023-08-01T12:39:42;24.00;61.70
20066;DHT22;10193;48.884;9.182;2023-08-01T12:42:09;24.00;62.70
20066;DHT22;10193;48.884;9.182;2023-08-01T12:44:37;24.10;63.10
20066;DHT22;10193;48.884;9.182;2023-08-01T12:47:04;24.20;63.30
20066;DHT22;10193;48.884;9.182;2023-08-01T12:49:33;24.30;63.20
20066;DHT22;10193;48.884;9.182;2023-08-01T12:51:59;24.30;61.70
20066;DHT22;10193;48.884;9.182;2023-08-01T12:54:26;24.40;60.50
20066;DHT22;10193;48.884;9.182;2023-08-01T12:56:52;24.40;59.10
20066;DHT22;10193;48.884;9.182;2023-08-01T12:59:19;24.30;58.70
20066;DHT22;10193;48.884;9.182;2023-08-01T13:01:47;24.30;58.70
20066;DHT22;10193;48.884;9.182;2023-08-01T13:04:14;24.20;58.80
20066;DHT22;10193;48.884;9.182;2023-08-01T13:06:40;24.30;59.60
20066;DHT22;10193;48.884;9.182;2023-08-01T13:09:07;24.30;60.00
20066;DHT22;10193;48.884;9.182;2023-08-01T13:11:34;24.30;59.50
20066;DHT22;10193;48.884;9.182;2023-08-01T13:14:00;24.30;59.50
20066;DHT22;10193;48.884;9.182;2023-08-01T13:16:27;24.40;58.80
20066;DHT22;10193;48.884;9.182;2023-08-01T13:18:55;24.40;58.50
20066;DHT22;10193;48.884;9.182;2023-08-01T13:21:22;24.40;58.50
20066;DHT22;10193;48.884;9.182;2023-08-01T13:23:49;24.40;58.90
20066;DHT22;10193;48.884;9.182;2023-08-01T13:26:16;24.40;59.10
20066;DHT22;10193;48.884;9.182;2023-08-01T13:28:42;24.50;59.40
20066;DHT22;10193;48.884;9.182;2023-08-01T13:31:09;24.60;59.60
20066;DHT22;10193;48.884;9.182;2023-08-01T13:33:35;24.60;59.40
20066;DHT22;10193;48.884;9.182;2023-08-01T13:36:04;24.70;58.80
20066;DHT22;10193;48.884;9.182;2023-08-01T13:38:31;24.80;57.80
20066;DHT22;10193;48.884;9.182;2023-08-01T13:40:59;24.80;57.20
20066;DHT22;10193;48.884;9.182;2023-08-01T13:43:26;24.90;57.60
20066;DHT22;10193;48.884;9.182;2023-08-01T13:45:52;24.90;57.80
20066;DHT22;10193;48.884;9.182;2023-08-01T13:48:19;24.90;57.80
20066;DHT22;10193;48.884;9.182;2023-08-01T13:50:46;25.00;55.80
20066;DHT22;10193;48.884;9.182;2023-08-01T13:53:14;25.00;55.50
20066;DHT22;10193;48.884;9.182;2023-08-01T13:55:41;25.00;55.40
20066;DHT22;10193;48.884;9.182;2023-08-01T13:58:08;25.00;55.50
20066;DHT22;10193;48.884;9.182;2023-08-01T14:00:35;25.00;56.00
20066;DHT22;10193;48.884;9.182;2023-08-01T14:03:01;25.00;55.90
20066;DHT22;10193;48.884;9.182;2023-08-01T14:05:28;25.00;55.20
20066;DHT22;10193;48.884;9.182;2023-08-01T14:07:55;25.00;55.50
20066;DHT22;10193;48.884;9.182;2023-08-01T14:10:23;25.00;55.40
20066;DHT22;10193;48.884;9.182;2023-08-01T14:12:50;25.00;54.90
20066;DHT22;10193;48.884;9.182;2023-08-01T14:15:16;25.00;55.60
20066;DHT22;10193;48.884;9.182;2023-08-01T14:17:43;25.00;55.80
20066;DHT22;10193;48.884;9.182;2023-08-01T14:20:11;25.00;56.20
20066;DHT22;10193;48.884;9.182;2023-08-01T14:22:37;25.10;56.40
20066;DHT22;10193;48.884;9.182;2023-08-01T14:25:05;25.20;56.40
20066;DHT22;10193;48.884;9.182;2023-08-01T14:27:33;25.20;55.80
20066;DHT22;10193;48.884;9.182;2023-08-01T14:30:00;25.30;56.00
20066;DHT22;10193;48.884;9.182;2023-08-01T14:32:28;25.40;56.30
20066;DHT22;10193;48.884;9.182;2023-08-01T14:34:54;25.40;56.10
20066;DHT22;10193;48.884;9.182;2023-08-01T14:37:21;25.50;55.50
20066;DHT22;10193;48.884;9.182;2023-08-01T14:39:49;25.50;56.40
20066;DHT22;10193;48.884;9.182;2023-08-01T14:42:15;25.50;55.50
20066;DHT22;10193;48.884;9.182;2023-08-01T14:44:43;25.50;55.60
20066;DHT22;10193;48.884;9.182;2023-08-01T14:47:10;25.50;54.70
20066;DHT22;10193;48.884;9.182;2023-08-01T14:49:37;25.50;54.20
20066;DHT22;10193;48.884;9.182;2023-08-01T14:52:04;25.50;54.40
20066;DHT22;10193;48.884;9.182;2023-08-01T14:54:31;25.50;54.20
20066;DHT22;10193;48.884;9.182;2023-08-01T14:56:58;25.50;54.10
20066;DHT22;10193;48.884;9.182;2023-08-01T14:59:24;25.60;55.00
20066;DHT22;10193;48.884;9.182;2023-08-01T15:01:52;25.50;54.60
20066;DHT22;10193;48.884;9.182;2023-08-01T15:04:19;25.60;54.70
20066;DHT22;10193;48.884;9.182;2023-08-01T15:06:45;25.70;55.00
20066;DHT22;10193;48.884;9.182;2023-08-01T15:09:12;25.70;55.10
20066;DHT22;10193;48.884;9.182;2023-08-01T15:11:39;25.80;55.20
20066;DHT22;10193;48.884;9.182;2023-08-01T15:14:05;25.90;55.20
20066;DHT22;10193;48.884;9.182;2023-08-01T15:16:32;26.00;54.70
20066;DHT22;10193;48.884;9.182;2023-08-01T15:19:00;26.00;54.50
20066;DHT22;10193;48.884;9.182;2023-08-01T15:21:27;26.00;54.30
20066;DHT22;10193;48.884;9.182;2023-08-01T15:23:54;26.00;54.30
20066;DHT22;10193;48.884;9.182;2023-08-01T15:26:21;26.00;53.70
20066;DHT22;10193;48.884;9.182;2023-08-01T15:28:47;26.00;53.70
20066;DHT22;10193;48.884;9.182;2023-08-01T15:31:14;26.00;53.50